Camden, IL (62319)

4:28 AM CDT on July 28, 2016 (GMT -0500)
Augusta | | Change Station

Elev 682 ft 40.23 °N, 90.95 °W | Updated 13 seconds ago

Scattered Clouds
Scattered Clouds
70.3 °F
Feels Like 70.3 °F
N
0.0
Wind Variable Wind from SSE

Today
High -- | Low -- °F
--% Chance of Precip.
Yesterday
High -- | Low -- °F
Precip. -- in
Pressure 29.90 in
Visibility 7.0 miles
Clouds Scattered Clouds 10000 ft
Dew Point 65 °F
Humidity 83%
Rainfall 0.00 in
Snow Depth Not available.
5:57 AM 8:20 PM
Waning Crescent, 34% visible
METAR KMQB 280915Z AUTO 00000KT 7SM SCT100 21/21 A2990 RMK AO2 T02130208
Pressure 29.90 in
Visibility 7.0 miles
Clouds Scattered Clouds 10000 ft
Dew Point 65 °F
Humidity 83%
Rainfall 0.00 in
Snow Depth Not available.
5:57 AM 8:20 PM
Waning Crescent, 34% visible
METAR KMQB 280915Z AUTO 00000KT 7SM SCT100 21/21 A2990 RMK AO2 T02130208

10-Day Weather Forecast

Almanac

Astronomy

Jul. 28, 2016 Rise Set
Actual Time
Civil Twilight
Nautical Twilight
Astronomical Twilight
Moon
Length of Visible Light
Length of Day
Tomorrow will be .
, % of the Moon is Illuminated

Today's Extremes

State Highs State Lows

Community

WunderPhotos

Upload Photos

1,928,070 photos uploaded!

WunderBlog® & News

Nearby

Air Quality

  Air Quality AQ Index Pollutant
Not available.

Snow Depth

Station Depth Elevation

Earthquake Activity

City Distance Mag. Time & Date
Minimum magnitude displayed is 2.5.

Coastal Water Temperatures

Place Temperature

Stations

Nearby Weather Stations

Station Location Temp. Windchill Dew Point Humidity Wind Precip. Elev Updated Type
                   

Watches & Warnings

There are currently no watches in effect.